createdAt,value
2022-08-21T00:00:19.139Z,2.15
2022-08-21T00:02:54.648Z,1.92
2022-08-21T00:05:22.437Z,1.65
2022-08-21T00:07:50.479Z,2.08
2022-08-21T00:10:18.917Z,2.35
2022-08-21T00:12:47.081Z,2.13
2022-08-21T00:15:18.184Z,1.92
2022-08-21T00:17:45.971Z,1.88
2022-08-21T00:20:15.986Z,1.42
2022-08-21T00:22:43.738Z,2.38
2022-08-21T00:25:12.270Z,2.10
2022-08-21T00:27:40.059Z,2.03
2022-08-21T00:30:08.933Z,1.77
2022-08-21T00:32:39.916Z,3.08
2022-08-21T00:35:12.704Z,2.15
2022-08-21T00:37:41.144Z,1.70
2022-08-21T00:40:13.643Z,2.63
2022-08-21T00:42:41.317Z,1.85
2022-08-21T00:45:10.384Z,1.83
2022-08-21T00:47:38.042Z,2.13
2022-08-21T00:50:08.526Z,1.63
2022-08-21T00:52:44.448Z,2.20
2022-08-21T00:55:13.103Z,1.75
2022-08-21T00:57:51.433Z,1.80
2022-08-21T01:00:31.986Z,1.90
2022-08-21T01:03:01.278Z,1.65
2022-08-21T01:05:29.402Z,1.35
2022-08-21T01:07:59.939Z,1.80
2022-08-21T01:10:27.777Z,2.03
2022-08-21T01:12:57.365Z,1.83
2022-08-21T01:15:36.258Z,1.85
2022-08-21T01:18:05.411Z,1.88
2022-08-21T01:20:33.195Z,2.10
2022-08-21T01:23:02.857Z,1.77
2022-08-21T01:25:31.048Z,2.45
2022-08-21T01:28:02.398Z,1.42
2022-08-21T01:30:30.667Z,1.73
2022-08-21T01:32:59.088Z,2.20
2022-08-21T01:35:27.083Z,1.90
2022-08-21T01:37:54.818Z,2.17
2022-08-21T01:40:22.847Z,3.05
2022-08-21T01:42:50.683Z,2.55
2022-08-21T01:45:18.549Z,2.10
2022-08-21T01:47:47.510Z,2.80
2022-08-21T01:50:19.069Z,2.65
2022-08-21T01:52:46.864Z,1.95
2022-08-21T01:55:17.064Z,1.67
2022-08-21T01:57:46.152Z,1.98
2022-08-21T02:00:15.668Z,1.70
2022-08-21T02:02:43.572Z,2.50
2022-08-21T02:05:13.025Z,2.33
2022-08-21T02:07:47.299Z,2.38
2022-08-21T02:10:20.113Z,2.33
2022-08-21T02:12:47.880Z,2.95
2022-08-21T02:15:15.879Z,2.08
2022-08-21T02:17:49.315Z,2.25
2022-08-21T02:20:44.926Z,2.42
2022-08-21T02:23:13.637Z,2.35
2022-08-21T02:25:41.232Z,2.08
2022-08-21T02:28:10.508Z,2.25
2022-08-21T02:30:42.353Z,1.70
2022-08-21T02:33:12.015Z,1.60
2022-08-21T02:35:43.026Z,1.75
2022-08-21T02:38:16.987Z,1.73
2022-08-21T02:40:51.061Z,1.63
2022-08-21T02:43:19.816Z,2.10
2022-08-21T02:45:48.082Z,2.08
2022-08-21T02:48:20.298Z,2.40
2022-08-21T02:50:53.927Z,1.77
2022-08-21T02:53:21.721Z,2.30
2022-08-21T02:55:51.578Z,1.80
2022-08-21T03:00:49.193Z,1.52
2022-08-21T03:03:17.039Z,3.55
2022-08-21T03:05:45.544Z,2.40
2022-08-21T03:08:15.065Z,1.83
2022-08-21T03:10:50.812Z,2.33
2022-08-21T03:13:20.362Z,2.10
2022-08-21T03:15:48.248Z,2.00
2022-08-21T03:18:17.242Z,1.67
2022-08-21T03:20:46.427Z,1.83
2022-08-21T03:23:15.084Z,2.03
2022-08-21T03:25:46.878Z,1.50
2022-08-21T03:28:17.219Z,2.55
2022-08-21T03:30:47.527Z,1.73
2022-08-21T03:33:15.776Z,1.70
2022-08-21T03:35:50.538Z,2.00
2022-08-21T03:38:19.295Z,1.65
2022-08-21T03:40:48.321Z,2.08
2022-08-21T03:43:16.084Z,2.13
2022-08-21T03:45:44.101Z,2.22
2022-08-21T03:48:11.851Z,2.25
2022-08-21T03:50:43.222Z,1.60
2022-08-21T03:55:46.645Z,2.55
2022-08-21T03:58:20.192Z,2.22
2022-08-21T04:00:52.295Z,2.22
2022-08-21T04:03:19.920Z,2.40
2022-08-21T04:05:48.995Z,2.00
2022-08-21T04:08:19.077Z,2.00
2022-08-21T04:10:49.124Z,1.85
2022-08-21T04:13:17.058Z,1.70
2022-08-21T04:15:44.850Z,2.45
2022-08-21T04:18:12.934Z,2.10
2022-08-21T04:20:41.971Z,1.75
2022-08-21T04:23:13.170Z,1.58
2022-08-21T04:25:54.433Z,2.03
2022-08-21T04:28:23.609Z,2.70
2022-08-21T04:30:57.650Z,2.17
2022-08-21T04:33:25.572Z,1.70
2022-08-21T04:35:53.184Z,1.65
2022-08-21T04:38:21.798Z,1.65
2022-08-21T04:40:50.814Z,2.00
2022-08-21T04:43:19.372Z,1.70
2022-08-21T04:45:48.883Z,2.13
2022-08-21T04:48:19.063Z,1.55
2022-08-21T04:51:05.298Z,1.50
2022-08-21T04:53:45.353Z,1.77
2022-08-21T04:56:32.383Z,2.22
2022-08-21T04:59:05.026Z,2.17
2022-08-21T05:01:36.950Z,1.70
2022-08-21T05:04:07.028Z,2.63
2022-08-21T05:06:38.033Z,2.05
2022-08-21T05:09:06.546Z,2.08
2022-08-21T05:11:36.067Z,2.03
2022-08-21T05:14:03.890Z,2.22
2022-08-21T05:16:37.000Z,2.08
2022-08-21T05:19:05.738Z,2.47
2022-08-21T05:21:33.702Z,1.98
2022-08-21T05:24:01.578Z,1.80
2022-08-21T05:26:29.472Z,1.75
2022-08-21T05:28:59.766Z,2.05
2022-08-21T05:31:27.474Z,2.05
2022-08-21T05:33:55.968Z,2.03
2022-08-21T05:36:24.011Z,2.85
2022-08-21T05:38:51.767Z,2.17
2022-08-21T05:41:19.557Z,1.92
2022-08-21T05:43:47.250Z,2.22
2022-08-21T05:46:14.870Z,2.88
2022-08-21T05:48:42.660Z,2.10
2022-08-21T05:51:13.522Z,2.40
2022-08-21T05:53:43.229Z,2.00
2022-08-21T05:56:11.210Z,2.03
2022-08-21T05:58:40.194Z,2.30
2022-08-21T06:01:10.002Z,1.95
2022-08-21T06:06:07.702Z,2.30
2022-08-21T06:08:35.728Z,2.38
2022-08-21T06:11:05.403Z,2.03
2022-08-21T06:16:16.135Z,1.90
2022-08-21T06:18:44.497Z,2.13
2022-08-21T06:21:12.730Z,2.08
2022-08-21T06:23:40.526Z,2.10
2022-08-21T06:26:08.732Z,2.00
2022-08-21T06:28:38.385Z,1.92
2022-08-21T06:31:15.797Z,1.90
2022-08-21T06:33:43.499Z,2.95
2022-08-21T06:36:11.353Z,2.15
2022-08-21T06:38:39.609Z,2.13
2022-08-21T06:41:08.082Z,2.70
2022-08-21T06:43:39.695Z,2.80
2022-08-21T06:48:36.173Z,2.50
2022-08-21T06:51:04.429Z,2.33
2022-08-21T06:53:34.390Z,4.32
2022-08-21T06:56:02.246Z,2.05
2022-08-21T06:58:31.453Z,2.25
2022-08-21T07:01:01.245Z,2.47
2022-08-21T07:03:34.046Z,2.10
2022-08-21T07:06:02.045Z,2.13
2022-08-21T07:08:30.056Z,1.67
2022-08-21T07:11:01.814Z,2.58
2022-08-21T07:13:29.643Z,2.28
2022-08-21T07:16:01.600Z,2.30
2022-08-21T07:18:31.517Z,2.30
2022-08-21T07:20:59.189Z,2.45
2022-08-21T07:23:33.848Z,1.65
2022-08-21T07:26:01.779Z,2.35
2022-08-21T07:28:30.279Z,1.90
2022-08-21T07:30:59.862Z,1.90
2022-08-21T07:33:29.373Z,1.88
2022-08-21T07:35:57.115Z,3.10
2022-08-21T07:38:24.903Z,2.72
2022-08-21T07:40:55.753Z,2.70
2022-08-21T07:43:23.585Z,2.50
2022-08-21T07:45:51.546Z,2.95
2022-08-21T07:48:19.377Z,2.40
2022-08-21T07:50:47.134Z,1.52
2022-08-21T07:53:14.838Z,2.10
2022-08-21T07:55:42.657Z,1.63
2022-08-21T07:58:11.477Z,1.98
2022-08-21T08:00:39.430Z,2.65
2022-08-21T08:03:07.135Z,2.65
2022-08-21T08:05:38.186Z,2.47
2022-08-21T08:08:05.968Z,2.53
2022-08-21T08:10:33.915Z,2.50
2022-08-21T08:13:01.932Z,2.33
2022-08-21T08:15:32.391Z,2.08
2022-08-21T08:18:02.165Z,2.60
2022-08-21T08:20:30.345Z,2.40
2022-08-21T08:22:58.175Z,2.85
2022-08-21T08:25:27.109Z,2.30
2022-08-21T08:27:55.041Z,0.77
2022-08-21T08:30:23.631Z,0.20
2022-08-21T08:32:51.420Z,0.50
2022-08-21T08:35:19.212Z,0.22
2022-08-21T08:37:52.714Z,0.30
2022-08-21T08:40:47.231Z,0.50
2022-08-21T08:45:47.827Z,0.75
2022-08-21T08:48:16.865Z,0.93
2022-08-21T08:50:53.260Z,0.63
2022-08-21T08:53:33.173Z,0.90
2022-08-21T08:56:03.550Z,1.83
2022-08-21T08:58:35.808Z,1.35
2022-08-21T09:01:07.172Z,1.75
2022-08-21T09:03:35.106Z,1.75
2022-08-21T09:06:25.829Z,1.58
2022-08-21T09:09:06.858Z,0.50
2022-08-21T09:11:49.940Z,0.50
2022-08-21T09:14:51.978Z,0.40
2022-08-21T09:17:54.971Z,1.10
2022-08-21T09:20:52.320Z,1.00
2022-08-21T09:23:32.303Z,0.68
2022-08-21T09:26:13.198Z,0.43
2022-08-21T09:28:42.449Z,0.70
2022-08-21T09:31:31.846Z,0.60
2022-08-21T09:34:04.673Z,0.52
2022-08-21T09:36:40.012Z,1.40
2022-08-21T09:39:08.189Z,0.90
2022-08-21T09:41:37.515Z,1.15
2022-08-21T09:44:06.185Z,0.30
2022-08-21T09:46:34.004Z,1.08
2022-08-21T09:49:03.938Z,0.80
2022-08-21T09:51:39.536Z,0.98
2022-08-21T09:54:06.809Z,1.13
2022-08-21T09:57:12.874Z,1.05
2022-08-21T09:59:41.084Z,0.32
2022-08-21T10:02:28.699Z,0.93
2022-08-21T10:05:02.049Z,2.50
2022-08-21T10:07:32.862Z,1.08
2022-08-21T10:10:33.384Z,2.08
2022-08-21T10:15:42.766Z,1.40
2022-08-21T10:18:51.532Z,0.50
2022-08-21T10:21:35.257Z,0.70
2022-08-21T10:24:30.578Z,1.00
2022-08-21T10:27:04.795Z,1.30
2022-08-21T10:29:55.189Z,0.80
2022-08-21T10:32:26.353Z,0.63
2022-08-21T10:35:13.072Z,1.00
2022-08-21T10:38:39.367Z,0.63
2022-08-21T10:41:20.347Z,0.50
2022-08-21T10:43:53.817Z,0.30
2022-08-21T10:47:04.655Z,1.17
2022-08-21T10:49:43.865Z,1.23
2022-08-21T10:52:35.451Z,0.40
2022-08-21T10:55:18.454Z,1.25
2022-08-21T10:58:05.073Z,1.67
2022-08-21T11:00:51.785Z,1.90
2022-08-21T11:03:42.201Z,1.23
2022-08-21T11:06:33.440Z,1.05
2022-08-21T11:09:13.847Z,1.20
2022-08-21T11:11:56.813Z,0.82
2022-08-21T11:15:07.201Z,1.45
2022-08-21T11:17:43.386Z,1.00
2022-08-21T11:22:54.553Z,1.20
2022-08-21T11:25:36.648Z,1.02
2022-08-21T11:28:32.509Z,1.20
2022-08-21T11:31:32.801Z,0.88
2022-08-21T11:34:26.651Z,1.00
2022-08-21T11:37:08.226Z,0.25
2022-08-21T11:40:05.925Z,1.10
2022-08-21T11:42:51.587Z,0.10
2022-08-21T11:45:34.097Z,1.20
2022-08-21T11:48:29.093Z,0.13
2022-08-21T11:50:57.885Z,0.90
2022-08-21T11:53:37.749Z,0.25
2022-08-21T11:56:12.390Z,0.20
2022-08-21T11:58:43.326Z,0.65
2022-08-21T12:01:22.788Z,0.40
2022-08-21T12:04:17.325Z,1.02
2022-08-21T12:06:46.486Z,0.93
2022-08-21T12:09:26.073Z,0.70
2022-08-21T12:12:06.219Z,0.50
2022-08-21T12:14:42.458Z,1.20
2022-08-21T12:17:20.485Z,0.60
2022-08-21T12:19:59.971Z,0.65
2022-08-21T12:22:41.964Z,1.95
2022-08-21T12:25:21.389Z,0.10
2022-08-21T12:28:03.563Z,1.00
2022-08-21T12:30:34.035Z,1.30
2022-08-21T12:33:05.938Z,0.68
2022-08-21T12:35:44.553Z,0.70
2022-08-21T12:38:27.875Z,1.38
2022-08-21T12:41:20.375Z,0.85
2022-08-21T12:44:13.932Z,1.80
2022-08-21T12:47:17.385Z,0.52
2022-08-21T12:50:14.400Z,0.47
2022-08-21T12:52:45.859Z,1.38
2022-08-21T12:55:17.030Z,1.83
2022-08-21T12:57:45.306Z,0.40
2022-08-21T13:00:15.566Z,0.88
2022-08-21T13:02:51.794Z,0.80
2022-08-21T13:05:41.776Z,0.43
2022-08-21T13:08:15.030Z,0.68
2022-08-21T13:10:43.009Z,1.13
2022-08-21T13:13:28.789Z,1.13
2022-08-21T13:16:05.770Z,1.10
2022-08-21T13:18:36.394Z,0.25
2022-08-21T13:21:08.155Z,1.20
2022-08-21T13:23:36.083Z,1.02
2022-08-21T13:26:26.069Z,1.20
2022-08-21T13:28:53.864Z,1.42
2022-08-21T13:31:31.875Z,1.67
2022-08-21T13:33:59.538Z,0.17
2022-08-21T13:36:38.458Z,0.30
2022-08-21T13:39:08.054Z,1.02
2022-08-21T13:41:41.822Z,1.20
2022-08-21T13:44:35.791Z,1.20
2022-08-21T13:47:06.987Z,0.63
2022-08-21T13:49:40.607Z,1.10
2022-08-21T13:52:20.886Z,1.52
2022-08-21T13:55:00.653Z,1.10
2022-08-21T13:57:29.947Z,0.82
2022-08-21T14:00:20.663Z,0.95
2022-08-21T14:02:54.831Z,1.35
2022-08-21T14:05:27.787Z,0.75
2022-08-21T14:08:49.368Z,0.60
2022-08-21T14:11:17.149Z,0.95
2022-08-21T14:13:50.686Z,0.47
2022-08-21T14:16:27.276Z,1.77
2022-08-21T14:19:07.028Z,0.38
2022-08-21T14:21:41.146Z,0.90
2022-08-21T14:24:10.628Z,0.95
2022-08-21T14:27:05.297Z,1.55
2022-08-21T14:29:39.482Z,0.52
2022-08-21T14:32:25.417Z,1.17
2022-08-21T14:34:55.126Z,1.25
2022-08-21T14:37:26.663Z,0.90
2022-08-21T14:39:54.294Z,0.98
2022-08-21T14:42:22.150Z,0.90
2022-08-21T14:44:49.902Z,1.20
2022-08-21T14:47:20.479Z,0.93
2022-08-21T14:49:48.108Z,0.63
2022-08-21T14:52:15.388Z,0.35
2022-08-21T14:54:42.900Z,0.50
2022-08-21T14:57:13.114Z,0.73
2022-08-21T14:59:42.327Z,0.13
2022-08-21T15:02:10.490Z,1.63
2022-08-21T15:04:40.627Z,0.90
2022-08-21T15:07:08.300Z,1.08
2022-08-21T15:09:35.754Z,1.08
2022-08-21T15:12:04.443Z,1.45
2022-08-21T15:14:34.194Z,1.35
2022-08-21T15:19:32.228Z,0.73
2022-08-21T15:22:02.617Z,1.20
2022-08-21T15:24:30.344Z,1.50
2022-08-21T15:26:59.924Z,1.17
2022-08-21T15:29:32.640Z,0.85
2022-08-21T15:32:28.309Z,1.45
2022-08-21T15:34:56.813Z,1.70
2022-08-21T15:37:27.271Z,1.20
2022-08-21T15:39:55.558Z,0.55
2022-08-21T15:42:23.973Z,1.42
2022-08-21T15:44:51.680Z,1.63
2022-08-21T15:47:23.411Z,0.82
2022-08-21T15:49:51.113Z,1.50
2022-08-21T15:52:21.472Z,0.60
2022-08-21T15:54:49.287Z,2.03
2022-08-21T15:57:19.275Z,1.23
2022-08-21T15:59:49.583Z,0.75
2022-08-21T16:02:29.884Z,4.40
2022-08-21T16:04:57.864Z,1.35
2022-08-21T16:07:25.856Z,1.90
2022-08-21T16:09:53.805Z,2.88
2022-08-21T16:12:31.893Z,2.33
2022-08-21T16:15:00.180Z,1.40
2022-08-21T16:17:34.750Z,2.28
2022-08-21T16:20:09.051Z,1.65
2022-08-21T16:22:43.854Z,1.98
2022-08-21T16:25:13.485Z,0.75
2022-08-21T16:27:42.666Z,1.17
2022-08-21T16:30:12.047Z,1.15
2022-08-21T16:32:39.654Z,1.30
2022-08-21T16:35:07.401Z,0.80
2022-08-21T16:37:34.837Z,0.60
2022-08-21T16:40:02.644Z,1.02
2022-08-21T16:42:32.917Z,0.60
2022-08-21T16:45:00.874Z,2.08
2022-08-21T16:47:28.598Z,0.80
2022-08-21T16:49:57.284Z,1.70
2022-08-21T16:52:25.485Z,0.30
2022-08-21T16:54:53.321Z,0.88
2022-08-21T16:57:20.896Z,0.38
2022-08-21T16:59:49.314Z,0.70
2022-08-21T17:02:40.603Z,1.38
2022-08-21T17:05:12.895Z,1.52
2022-08-21T17:07:42.896Z,0.10
2022-08-21T17:10:12.561Z,0.75
2022-08-21T17:12:43.833Z,1.33
2022-08-21T17:15:38.901Z,0.93
2022-08-21T17:18:09.898Z,0.45
2022-08-21T17:20:37.560Z,0.75
2022-08-21T17:23:05.220Z,0.75
2022-08-21T17:25:33.435Z,1.45
2022-08-21T17:28:01.255Z,1.60
2022-08-21T17:30:28.976Z,1.60
2022-08-21T17:32:58.616Z,0.68
2022-08-21T17:37:54.090Z,0.60
2022-08-21T17:40:22.687Z,1.65
2022-08-21T17:42:50.395Z,1.55
2022-08-21T17:45:19.853Z,1.40
2022-08-21T17:47:47.527Z,0.63
2022-08-21T17:50:16.872Z,0.73
2022-08-21T17:52:50.558Z,1.70
2022-08-21T17:55:18.392Z,1.58
2022-08-21T17:57:48.121Z,1.42
2022-08-21T18:00:19.039Z,1.60
2022-08-21T18:02:51.194Z,2.40
2022-08-21T18:05:21.663Z,2.72
2022-08-21T18:07:51.840Z,1.27
2022-08-21T18:10:22.025Z,1.27
2022-08-21T18:12:49.974Z,1.48
2022-08-21T18:15:20.721Z,2.17
2022-08-21T18:17:51.365Z,1.40
2022-08-21T18:20:21.904Z,1.90
2022-08-21T18:22:49.764Z,2.00
2022-08-21T18:25:17.749Z,1.10
2022-08-21T18:27:47.697Z,1.02
2022-08-21T18:30:16.938Z,1.40
2022-08-21T18:32:47.968Z,1.50
2022-08-21T18:35:16.768Z,2.33
2022-08-21T18:37:45.063Z,1.70
2022-08-21T18:40:12.914Z,2.72
2022-08-21T18:42:43.493Z,1.38
2022-08-21T18:45:23.175Z,2.67
2022-08-21T18:47:53.925Z,1.35
2022-08-21T18:50:24.820Z,1.58
2022-08-21T18:52:53.672Z,2.67
2022-08-21T18:55:24.756Z,2.22
2022-08-21T18:57:55.250Z,1.67
2022-08-21T19:00:26.792Z,2.80
2022-08-21T19:02:54.569Z,2.42
2022-08-21T19:05:23.292Z,2.45
2022-08-21T19:07:51.545Z,2.40
2022-08-21T19:10:28.708Z,2.45
2022-08-21T19:12:59.947Z,3.00
2022-08-21T19:15:28.461Z,2.35
2022-08-21T19:17:57.058Z,3.38
2022-08-21T19:20:25.670Z,2.38
2022-08-21T19:22:56.413Z,2.38
2022-08-21T19:25:34.010Z,2.80
2022-08-21T19:28:12.241Z,3.53
2022-08-21T19:30:46.269Z,2.38
2022-08-21T19:33:23.842Z,2.33
2022-08-21T19:35:52.632Z,2.28
2022-08-21T19:38:24.536Z,2.50
2022-08-21T19:40:52.918Z,2.70
2022-08-21T19:43:22.471Z,2.40
2022-08-21T19:45:51.142Z,2.35
2022-08-21T19:48:19.385Z,2.28
2022-08-21T19:50:47.027Z,2.60
2022-08-21T19:53:14.710Z,2.95
2022-08-21T19:55:46.567Z,2.15
2022-08-21T19:58:40.093Z,2.47
2022-08-21T20:01:11.536Z,1.95
2022-08-21T20:06:45.281Z,2.40
2022-08-21T20:09:13.120Z,2.25
2022-08-21T20:11:46.783Z,1.90
2022-08-21T20:14:17.093Z,2.05
2022-08-21T20:16:46.871Z,2.55
2022-08-21T20:19:14.565Z,2.80
2022-08-21T20:21:44.320Z,2.80
2022-08-21T20:26:49.271Z,2.70
2022-08-21T20:29:24.532Z,2.63
2022-08-21T20:31:57.577Z,2.33
2022-08-21T20:34:25.541Z,2.75
2022-08-21T20:36:53.511Z,2.80
2022-08-21T20:42:10.734Z,2.33
2022-08-21T20:47:26.445Z,2.75
2022-08-21T20:50:00.584Z,2.50
2022-08-21T20:52:33.071Z,1.90
2022-08-21T20:55:09.593Z,1.83
2022-08-21T20:57:56.290Z,1.98
2022-08-21T21:00:26.915Z,2.72
2022-08-21T21:03:23.094Z,2.85
2022-08-21T21:06:10.990Z,2.55
2022-08-21T21:08:41.618Z,2.10
2022-08-21T21:11:17.201Z,2.38
2022-08-21T21:13:55.978Z,2.60
2022-08-21T21:16:45.939Z,1.88
2022-08-21T21:19:44.392Z,2.00
2022-08-21T21:22:19.813Z,2.17
2022-08-21T21:24:51.456Z,2.17
2022-08-21T21:28:01.526Z,1.80
2022-08-21T21:30:36.974Z,2.15
2022-08-21T21:33:05.478Z,2.80
2022-08-21T21:35:38.772Z,2.22
2022-08-21T21:38:35.793Z,2.00
2022-08-21T21:41:34.388Z,2.08
2022-08-21T21:44:17.156Z,1.90
2022-08-21T21:47:01.869Z,1.98
2022-08-21T21:49:49.750Z,2.05
2022-08-21T21:52:36.387Z,1.95
2022-08-21T21:55:23.720Z,2.30
2022-08-21T21:58:24.198Z,2.60
2022-08-21T22:03:50.763Z,1.77
2022-08-21T22:06:44.646Z,1.60
2022-08-21T22:09:21.704Z,2.10
2022-08-21T22:12:02.906Z,1.85
2022-08-21T22:14:40.920Z,1.75
2022-08-21T22:17:18.262Z,1.75
2022-08-21T22:19:46.268Z,1.80
2022-08-21T22:22:23.251Z,2.17
2022-08-21T22:24:54.361Z,1.70
2022-08-21T22:27:29.039Z,1.83
2022-08-21T22:30:01.825Z,1.63
2022-08-21T22:32:47.122Z,1.58
2022-08-21T22:35:15.580Z,2.13
2022-08-21T22:37:47.924Z,1.60
2022-08-21T22:40:26.522Z,1.77
2022-08-21T22:43:14.924Z,2.20
2022-08-21T22:45:51.603Z,1.77
2022-08-21T22:48:23.411Z,2.08
2022-08-21T22:51:30.078Z,2.00
2022-08-21T22:54:00.298Z,1.45
2022-08-21T22:56:45.355Z,1.92
2022-08-21T22:59:34.911Z,1.67
2022-08-21T23:02:29.355Z,1.50
2022-08-21T23:05:01.066Z,2.05
2022-08-21T23:07:49.911Z,1.80
2022-08-21T23:10:29.214Z,2.35
2022-08-21T23:16:15.699Z,1.60
2022-08-21T23:19:21.122Z,2.58
2022-08-21T23:22:28.346Z,1.42
2022-08-21T23:25:21.173Z,2.00
2022-08-21T23:28:16.773Z,2.30
2022-08-21T23:30:53.302Z,1.70
2022-08-21T23:33:24.105Z,2.03
2022-08-21T23:36:15.576Z,2.28
2022-08-21T23:38:57.493Z,1.90
2022-08-21T23:42:12.660Z,1.85
2022-08-21T23:45:18.982Z,1.60
2022-08-21T23:47:54.459Z,2.20
2022-08-21T23:50:31.440Z,2.40
2022-08-21T23:53:01.745Z,1.90
2022-08-21T23:55:56.466Z,2.03
2022-08-21T23:58:47.206Z,1.80
